Time;durP1;ratioP1;P1;durP2;ratioP2;P2;SDS_P1;SDS_P2;PMS_P1;PMS_P2;Temp;Humidity;BMP_temperature;BMP_pressure;BME280_temperature;BME280_humidity;BME280_pressure;Samples;Min_cycle;Max_cycle;Signal;HPM_P1;HPM_P2
2021/07/15 00:00:36;;;;;;;10.63;6.75;;;;;;;;;;3592632;40;20250;-60
2021/07/15 00:03:01;;;;;;;17.75;6.97;;;;;;;;;;3591846;40;20034;-60
2021/07/15 00:05:26;;;;;;;8.93;7.10;;;;;;;;;;3591471;40;20248;-61
2021/07/15 00:07:52;;;;;;;8.10;6.80;;;;;;;;;;3592876;40;20028;-60
2021/07/15 00:10:19;;;;;;;9.70;6.50;;;;;;;;;;3592866;40;20035;-61
2021/07/15 00:12:44;;;;;;;8.38;6.50;;;;;;;;;;3591925;39;20393;-61
2021/07/15 00:15:09;;;;;;;10.50;8.30;;;;;;;;;;3592560;40;20035;-60
2021/07/15 00:17:34;;;;;;;11.80;8.40;;;;;;;;;;3591175;40;20028;-60
2021/07/15 00:20:00;;;;;;;10.10;7.90;;;;;;;;;;3592199;40;20024;-60
2021/07/15 00:22:25;;;;;;;9.47;7.73;;;;;;;;;;3592383;40;20047;-61
2021/07/15 00:24:51;;;;;;;12.77;8.00;;;;;;;;;;3592635;40;20028;-61
2021/07/15 00:27:16;;;;;;;10.30;7.93;;;;;;;;;;3591863;39;20024;-60
2021/07/15 00:29:41;;;;;;;13.97;7.50;;;;;;;;;;3592468;40;20032;-60
2021/07/15 00:32:06;;;;;;;8.97;7.47;;;;;;;;;;3590811;40;20111;-61
2021/07/15 00:34:32;;;;;;;10.30;6.67;;;;;;;;;;3592152;40;20025;-60
2021/07/15 00:36:57;;;;;;;9.43;7.15;;;;;;;;;;3592719;39;20572;-60
2021/07/15 00:39:22;;;;;;;11.17;7.53;;;;;;;;;;3590909;40;20121;-60
2021/07/15 00:41:47;;;;;;;11.80;8.67;;;;;;;;;;3591955;40;20031;-61
2021/07/15 00:44:13;;;;;;;12.57;9.17;;;;;;;;;;3592033;40;20079;-60
2021/07/15 00:46:38;;;;;;;12.47;8.70;;;;;;;;;;3592050;40;20032;-60
2021/07/15 00:49:03;;;;;;;10.70;7.53;;;;;;;;;;3592109;40;20242;-61
2021/07/15 00:51:29;;;;;;;10.05;7.80;;;;;;;;;;3591823;40;20031;-61
2021/07/15 00:53:55;;;;;;;9.27;7.13;;;;;;;;;;3591883;39;20028;-61
2021/07/15 00:56:20;;;;;;;9.70;7.87;;;;;;;;;;3591821;40;20036;-60
2021/07/15 00:58:45;;;;;;;9.43;7.00;;;;;;;;;;3592297;39;20027;-61
2021/07/15 01:01:10;;;;;;;13.82;7.05;;;;;;;;;;3590541;40;20044;-61
2021/07/15 01:03:36;;;;;;;9.43;6.70;;;;;;;;;;3591989;40;20016;-61
2021/07/15 01:06:01;;;;;;;13.43;7.57;;;;;;;;;;3591036;40;20113;-61
2021/07/15 01:08:26;;;;;;;13.87;9.40;;;;;;;;;;3591788;40;20024;-60
2021/07/15 01:10:51;;;;;;;10.15;8.60;;;;;;;;;;3590035;39;20043;-61
2021/07/15 01:13:16;;;;;;;12.87;7.70;;;;;;;;;;3592787;40;20020;-61
2021/07/15 01:15:42;;;;;;;13.80;7.10;;;;;;;;;;3592058;40;20266;-61
2021/07/15 01:18:07;;;;;;;8.00;6.70;;;;;;;;;;3592904;39;20024;-61
2021/07/15 01:20:32;;;;;;;10.20;7.03;;;;;;;;;;3593021;39;20112;-60
2021/07/15 01:22:58;;;;;;;8.30;7.17;;;;;;;;;;3593260;40;20024;-61
2021/07/15 01:25:23;;;;;;;14.67;7.00;;;;;;;;;;3592730;40;20266;-65
2021/07/15 01:27:48;;;;;;;7.93;6.90;;;;;;;;;;3593229;40;20027;-66
2021/07/15 01:30:13;;;;;;;9.63;6.93;;;;;;;;;;3593124;40;20027;-66
2021/07/15 01:32:38;;;;;;;11.33;7.03;;;;;;;;;;3591581;40;20039;-66
2021/07/15 01:35:03;;;;;;;10.17;7.93;;;;;;;;;;3593543;40;20397;-66
2021/07/15 01:37:29;;;;;;;14.60;8.27;;;;;;;;;;3593050;40;20352;-66
2021/07/15 01:39:54;;;;;;;12.23;9.47;;;;;;;;;;3592926;40;20029;-67
2021/07/15 01:42:19;;;;;;;13.00;9.00;;;;;;;;;;3593017;40;20028;-66
2021/07/15 01:44:44;;;;;;;17.73;8.87;;;;;;;;;;3593757;40;20032;-67
2021/07/15 01:47:09;;;;;;;11.97;9.73;;;;;;;;;;3593262;40;20036;-66
2021/07/15 01:49:35;;;;;;;15.33;10.50;;;;;;;;;;3591379;40;20659;-66
2021/07/15 01:52:00;;;;;;;16.90;9.17;;;;;;;;;;3591875;39;20793;-66
2021/07/15 01:54:25;;;;;;;19.57;9.37;;;;;;;;;;3591824;40;20262;-67
2021/07/15 01:56:50;;;;;;;34.75;9.77;;;;;;;;;;3591825;40;20039;-67
2021/07/15 01:59:16;;;;;;;10.53;8.60;;;;;;;;;;3590759;40;20040;-67
2021/07/15 02:01:41;;;;;;;12.47;8.37;;;;;;;;;;3592218;40;20405;-67
2021/07/15 02:04:06;;;;;;;12.63;8.90;;;;;;;;;;3591114;40;20024;-67
2021/07/15 02:06:31;;;;;;;12.20;7.77;;;;;;;;;;3592003;40;20035;-66
2021/07/15 02:08:59;;;;;;;9.53;7.40;;;;;;;;;;3590916;40;20012;-67
2021/07/15 02:11:24;;;;;;;12.48;7.35;;;;;;;;;;3591374;40;20024;-67
2021/07/15 02:13:50;;;;;;;13.90;7.70;;;;;;;;;;3592821;39;20066;-67
2021/07/15 02:16:15;;;;;;;11.32;7.28;;;;;;;;;;3591964;40;20071;-67
2021/07/15 02:18:40;;;;;;;8.17;6.70;;;;;;;;;;3591679;40;20048;-66
2021/07/15 02:21:05;;;;;;;9.97;6.40;;;;;;;;;;3592034;40;20129;-67
2021/07/15 02:23:30;;;;;;;10.07;6.20;;;;;;;;;;3589693;39;20027;-67
2021/07/15 02:25:56;;;;;;;7.32;5.70;;;;;;;;;;3591520;40;20040;-67
2021/07/15 02:28:21;;;;;;;10.50;6.10;;;;;;;;;;3591498;39;20020;-67
2021/07/15 02:30:46;;;;;;;9.07;5.93;;;;;;;;;;3591989;39;20024;-67
2021/07/15 02:33:12;;;;;;;10.70;5.93;;;;;;;;;;3591789;40;20117;-67
2021/07/15 02:35:37;;;;;;;7.40;5.90;;;;;;;;;;3591723;40;20059;-66
2021/07/15 02:38:02;;;;;;;9.97;6.60;;;;;;;;;;3592524;40;20456;-67
2021/07/15 02:40:27;;;;;;;7.57;5.60;;;;;;;;;;3591182;40;20028;-67
2021/07/15 02:42:52;;;;;;;10.40;5.50;;;;;;;;;;3591918;40;20103;-67
2021/07/15 02:45:17;;;;;;;7.53;6.07;;;;;;;;;;3591508;40;20032;-66
2021/07/15 02:47:43;;;;;;;8.60;6.33;;;;;;;;;;3593251;40;20024;-66
2021/07/15 02:50:08;;;;;;;7.45;5.70;;;;;;;;;;3592877;39;20129;-67
2021/07/15 02:52:33;;;;;;;9.87;6.33;;;;;;;;;;3592779;40;20143;-67
2021/07/15 02:54:58;;;;;;;12.13;7.30;;;;;;;;;;3592497;40;20654;-67
2021/07/15 02:57:24;;;;;;;11.87;7.30;;;;;;;;;;3592909;40;20294;-66
2021/07/15 02:59:49;;;;;;;9.03;6.50;;;;;;;;;;3591099;40;20250;-67
2021/07/15 03:02:15;;;;;;;6.60;5.68;;;;;;;;;;3592606;40;20028;-67
2021/07/15 03:04:41;;;;;;;10.38;5.88;;;;;;;;;;3592443;39;20087;-67
2021/07/15 03:07:06;;;;;;;9.38;5.03;;;;;;;;;;3592713;39;20113;-67
2021/07/15 03:09:31;;;;;;;20.13;5.60;;;;;;;;;;3591873;40;20068;-67
2021/07/15 03:12:00;;;;;;;6.37;4.90;;;;;;;;;;3590898;40;20052;-67
2021/07/15 03:14:25;;;;;;;6.82;5.35;;;;;;;;;;3592396;39;20246;-67
2021/07/15 03:16:50;;;;;;;8.73;5.80;;;;;;;;;;3592611;40;20034;-66
2021/07/15 03:19:15;;;;;;;9.70;6.10;;;;;;;;;;3592655;40;20043;-67
2021/07/15 03:21:41;;;;;;;10.05;6.68;;;;;;;;;;3592303;40;20032;-67
2021/07/15 03:24:06;;;;;;;7.50;6.25;;;;;;;;;;3592078;40;20062;-66
2021/07/15 03:26:31;;;;;;;10.67;6.33;;;;;;;;;;3592411;40;20781;-66
2021/07/15 03:28:56;;;;;;;9.00;6.70;;;;;;;;;;3593009;40;20242;-67
2021/07/15 03:31:21;;;;;;;8.03;6.10;;;;;;;;;;3592058;40;20128;-67
2021/07/15 03:33:47;;;;;;;9.47;6.17;;;;;;;;;;3592253;39;20739;-67
2021/07/15 03:36:12;;;;;;;12.43;5.77;;;;;;;;;;3592538;40;20051;-66
2021/07/15 03:38:37;;;;;;;7.43;5.80;;;;;;;;;;3590613;40;20780;-67
2021/07/15 03:41:02;;;;;;;7.90;5.57;;;;;;;;;;3592486;40;20091;-66
2021/07/15 03:43:27;;;;;;;7.82;5.57;;;;;;;;;;3592127;39;20020;-67
2021/07/15 03:45:53;;;;;;;6.53;5.13;;;;;;;;;;3591900;40;20028;-66
2021/07/15 03:48:18;;;;;;;8.23;5.80;;;;;;;;;;3592481;40;20032;-67
2021/07/15 03:50:43;;;;;;;8.75;5.40;;;;;;;;;;3592016;39;20257;-66
2021/07/15 03:53:08;;;;;;;7.10;5.27;;;;;;;;;;3591840;40;20072;-66
2021/07/15 03:55:34;;;;;;;8.23;5.10;;;;;;;;;;3592137;40;20718;-66
2021/07/15 03:57:59;;;;;;;7.28;5.03;;;;;;;;;;3592496;39;20414;-67
2021/07/15 04:00:24;;;;;;;6.03;4.87;;;;;;;;;;3591944;40;20020;-67
2021/07/15 04:02:50;;;;;;;10.47;4.97;;;;;;;;;;3592162;40;20034;-66
2021/07/15 04:05:15;;;;;;;7.73;3.73;;;;;;;;;;3592075;40;20721;-67
2021/07/15 04:07:40;;;;;;;8.70;4.57;;;;;;;;;;3591653;40;20117;-67
2021/07/15 04:10:05;;;;;;;5.97;4.10;;;;;;;;;;3592175;40;20393;-66
2021/07/15 04:12:31;;;;;;;5.43;4.50;;;;;;;;;;3592244;40;20620;-66
2021/07/15 04:14:56;;;;;;;6.30;4.88;;;;;;;;;;3591273;40;20283;-66
2021/07/15 04:17:21;;;;;;;8.77;4.93;;;;;;;;;;3592170;40;20028;-66
2021/07/15 04:19:46;;;;;;;6.60;5.13;;;;;;;;;;3591080;40;20032;-65
2021/07/15 04:22:12;;;;;;;6.38;4.95;;;;;;;;;;3590868;40;20761;-66
2021/07/15 04:24:37;;;;;;;6.05;4.97;;;;;;;;;;3592063;39;20032;-66
2021/07/15 04:27:02;;;;;;;10.47;5.37;;;;;;;;;;3592299;40;20144;-66
2021/07/15 04:29:27;;;;;;;9.20;4.83;;;;;;;;;;3592314;40;20249;-66
2021/07/15 04:31:53;;;;;;;8.40;5.43;;;;;;;;;;3591872;40;20255;-66
2021/07/15 04:34:18;;;;;;;6.20;5.00;;;;;;;;;;3592177;40;20258;-66
2021/07/15 04:36:43;;;;;;;5.67;4.80;;;;;;;;;;3592477;40;20035;-66
2021/07/15 04:39:08;;;;;;;8.77;4.90;;;;;;;;;;3590832;40;20109;-66
2021/07/15 04:41:34;;;;;;;9.13;4.95;;;;;;;;;;3591850;39;20428;-66
2021/07/15 04:43:59;;;;;;;7.95;4.63;;;;;;;;;;3592045;40;20029;-66
2021/07/15 04:46:24;;;;;;;8.23;4.78;;;;;;;;;;3589380;40;20040;-66
2021/07/15 04:48:50;;;;;;;9.47;4.83;;;;;;;;;;3590787;40;20044;-67
2021/07/15 04:51:16;;;;;;;9.20;4.80;;;;;;;;;;3591821;40;20251;-65
2021/07/15 04:53:41;;;;;;;5.68;4.45;;;;;;;;;;3591497;39;20243;-66
2021/07/15 04:56:06;;;;;;;9.40;5.50;;;;;;;;;;3592046;40;20036;-66
2021/07/15 04:58:32;;;;;;;13.80;4.70;;;;;;;;;;3592246;40;20021;-66
2021/07/15 05:00:57;;;;;;;4.90;4.38;;;;;;;;;;3589515;40;20024;-67
2021/07/15 05:03:23;;;;;;;6.23;4.20;;;;;;;;;;3590967;40;20088;-66
2021/07/15 05:05:48;;;;;;;11.90;5.22;;;;;;;;;;3591292;39;20032;-66
2021/07/15 05:08:13;;;;;;;16.37;5.97;;;;;;;;;;3591136;40;20111;-67
2021/07/15 05:10:38;;;;;;;8.00;4.90;;;;;;;;;;3590877;40;20032;-65
2021/07/15 05:13:04;;;;;;;6.90;5.07;;;;;;;;;;3591279;40;20504;-66
2021/07/15 05:15:29;;;;;;;5.87;4.63;;;;;;;;;;3591619;40;20589;-67
2021/07/15 05:17:54;;;;;;;8.57;5.00;;;;;;;;;;3591063;40;20024;-67
2021/07/15 05:20:20;;;;;;;11.13;5.40;;;;;;;;;;3591272;40;20121;-67
2021/07/15 05:22:45;;;;;;;7.28;5.05;;;;;;;;;;3590728;39;20039;-67
2021/07/15 05:25:10;;;;;;;5.20;4.10;;;;;;;;;;3589933;40;20125;-66
2021/07/15 05:27:36;;;;;;;10.30;4.47;;;;;;;;;;3589501;40;20028;-67
2021/07/15 05:30:01;;;;;;;7.97;4.70;;;;;;;;;;3590663;40;20028;-67
2021/07/15 05:32:26;;;;;;;5.83;4.20;;;;;;;;;;3590610;40;20032;-66
2021/07/15 05:34:51;;;;;;;6.90;4.60;;;;;;;;;;3590777;40;20261;-66
2021/07/15 05:37:16;;;;;;;7.83;4.53;;;;;;;;;;3589485;40;20653;-66
2021/07/15 05:39:44;;;;;;;6.17;4.00;;;;;;;;;;3590821;40;20027;-66
2021/07/15 05:42:09;;;;;;;8.48;4.53;;;;;;;;;;3590690;39;20028;-66
2021/07/15 05:44:34;;;;;;;4.57;3.93;;;;;;;;;;3591016;40;20039;-66
2021/07/15 05:46:59;;;;;;;4.07;3.67;;;;;;;;;;3590893;40;20016;-66
2021/07/15 05:49:24;;;;;;;6.03;3.40;;;;;;;;;;3590599;40;20032;-66
2021/07/15 05:51:50;;;;;;;5.47;3.97;;;;;;;;;;3590441;40;20024;-65
2021/07/15 05:54:15;;;;;;;6.17;4.10;;;;;;;;;;3590874;40;20395;-66
2021/07/15 05:56:40;;;;;;;4.80;3.97;;;;;;;;;;3590625;40;20032;-65
2021/07/15 05:59:05;;;;;;;3.47;3.10;;;;;;;;;;3592324;39;20488;-66
2021/07/15 06:01:30;;;;;;;6.90;3.50;;;;;;;;;;3592991;40;20028;-66
2021/07/15 06:03:56;;;;;;;5.43;3.30;;;;;;;;;;3592923;40;20043;-67
2021/07/15 06:06:21;;;;;;;3.83;3.30;;;;;;;;;;3592855;40;20035;-65
2021/07/15 06:08:47;;;;;;;3.93;3.13;;;;;;;;;;3592835;40;20729;-66
2021/07/15 06:11:12;;;;;;;4.00;3.15;;;;;;;;;;3592752;39;20043;-65
2021/07/15 06:13:37;;;;;;;3.13;2.50;;;;;;;;;;3592538;40;20724;-66
2021/07/15 06:16:02;;;;;;;4.93;2.67;;;;;;;;;;3592159;40;20705;-66
2021/07/15 06:18:28;;;;;;;4.97;2.90;;;;;;;;;;3591870;40;20072;-66
2021/07/15 06:20:53;;;;;;;15.43;3.33;;;;;;;;;;3591332;40;20021;-66
2021/07/15 06:23:18;;;;;;;9.02;3.05;;;;;;;;;;3592880;39;20247;-66
2021/07/15 06:25:43;;;;;;;7.80;3.40;;;;;;;;;;3592613;40;20045;-66
2021/07/15 06:28:09;;;;;;;6.43;2.80;;;;;;;;;;3593101;40;20389;-67
2021/07/15 06:30:34;;;;;;;5.97;2.63;;;;;;;;;;3593045;40;20180;-67
2021/07/15 06:32:59;;;;;;;8.53;4.70;;;;;;;;;;3592126;40;20476;-66
2021/07/15 06:35:25;;;;;;;7.72;4.93;;;;;;;;;;3592360;40;20052;-66
2021/07/15 06:37:50;;;;;;;5.65;3.30;;;;;;;;;;3592284;39;20028;-66
2021/07/15 06:40:15;;;;;;;2.30;2.10;;;;;;;;;;3592326;40;20046;-66
2021/07/15 06:42:40;;;;;;;9.10;2.50;;;;;;;;;;3590720;40;20500;-67
2021/07/15 06:45:06;;;;;;;4.72;2.35;;;;;;;;;;3591257;40;20077;-66
2021/07/15 06:47:31;;;;;;;4.77;2.30;;;;;;;;;;3592925;40;20466;-66
2021/07/15 06:49:56;;;;;;;5.67;2.37;;;;;;;;;;3592360;40;20625;-66
2021/07/15 06:52:23;;;;;;;2.63;2.10;;;;;;;;;;3592436;40;20032;-66
2021/07/15 06:54:48;;;;;;;4.22;2.45;;;;;;;;;;3591791;39;20047;-67
2021/07/15 06:57:13;;;;;;;3.40;2.30;;;;;;;;;;3592269;40;20017;-66
2021/07/15 06:59:38;;;;;;;4.00;2.13;;;;;;;;;;3590963;40;20105;-67
2021/07/15 07:02:03;;;;;;;3.50;2.67;;;;;;;;;;3591466;40;20020;-67
2021/07/15 07:04:28;;;;;;;4.37;2.80;;;;;;;;;;3590326;40;20040;-66
2021/07/15 07:06:54;;;;;;;4.10;2.83;;;;;;;;;;3590773;40;20486;-66
2021/07/15 07:09:19;;;;;;;3.60;2.73;;;;;;;;;;3591116;39;20028;-66
2021/07/15 07:11:44;;;;;;;4.30;1.80;;;;;;;;;;3590228;40;20028;-66
2021/07/15 07:14:09;;;;;;;2.83;1.40;;;;;;;;;;3591431;40;20027;-66
2021/07/15 07:16:34;;;;;;;2.70;1.40;;;;;;;;;;3590575;40;20375;-67
2021/07/15 07:19:00;;;;;;;3.07;1.50;;;;;;;;;;3591778;40;20032;-67
2021/07/15 07:21:25;;;;;;;1.40;1.20;;;;;;;;;;3591730;40;20953;-67
2021/07/15 07:23:50;;;;;;;3.33;2.20;;;;;;;;;;3591588;40;20036;-66
2021/07/15 07:26:15;;;;;;;38.77;21.33;;;;;;;;;;3592368;40;20589;-67
2021/07/15 07:28:42;;;;;;;3.80;2.63;;;;;;;;;;3592181;40;20051;-67
2021/07/15 07:31:07;;;;;;;5.70;1.90;;;;;;;;;;3592341;40;20491;-66
2021/07/15 07:33:32;;;;;;;3.20;1.63;;;;;;;;;;3591844;40;20028;-66
2021/07/15 07:35:57;;;;;;;5.17;2.10;;;;;;;;;;3591118;40;20128;-67
2021/07/15 07:38:22;;;;;;;4.20;1.90;;;;;;;;;;3591669;40;20044;-66
2021/07/15 07:40:48;;;;;;;5.73;1.90;;;;;;;;;;3590339;40;20028;-67
2021/07/15 07:43:13;;;;;;;4.07;1.50;;;;;;;;;;3589993;40;20276;-66
2021/07/15 07:45:38;;;;;;;4.30;1.93;;;;;;;;;;3591207;40;20410;-67
2021/07/15 07:48:03;;;;;;;3.40;2.10;;;;;;;;;;3591451;40;20398;-67
2021/07/15 07:50:29;;;;;;;1.80;1.60;;;;;;;;;;3589991;40;20042;-67
2021/07/15 07:52:55;;;;;;;2.67;1.70;;;;;;;;;;3591104;40;20036;-67
2021/07/15 07:55:20;;;;;;;2.67;1.77;;;;;;;;;;3591488;39;20029;-66
2021/07/15 07:57:45;;;;;;;1.50;1.23;;;;;;;;;;3591341;40;20055;-67
2021/07/15 08:00:11;;;;;;;4.23;1.50;;;;;;;;;;3591394;40;20020;-67
2021/07/15 08:02:39;;;;;;;2.00;1.40;;;;;;;;;;3591628;39;20040;-66
2021/07/15 08:05:05;;;;;;;3.63;1.70;;;;;;;;;;3591224;40;20080;-67
2021/07/15 08:07:32;;;;;;;2.90;1.88;;;;;;;;;;3592216;39;20079;-66
2021/07/15 08:09:57;;;;;;;5.57;2.58;;;;;;;;;;3591592;39;20031;-66
2021/07/15 08:12:23;;;;;;;8.80;2.77;;;;;;;;;;3591711;40;20052;-67
2021/07/15 08:14:48;;;;;;;4.30;1.90;;;;;;;;;;3589542;40;20036;-67
2021/07/15 08:17:13;;;;;;;5.43;1.97;;;;;;;;;;3591148;40;20051;-67
2021/07/15 08:19:38;;;;;;;2.07;1.50;;;;;;;;;;3591067;40;20078;-67
2021/07/15 08:22:03;;;;;;;2.77;1.50;;;;;;;;;;3589773;39;20023;-67
2021/07/15 08:24:29;;;;;;;3.20;1.40;;;;;;;;;;3590982;40;20036;-67
2021/07/15 08:26:54;;;;;;;2.83;1.43;;;;;;;;;;3591123;40;20262;-67
2021/07/15 08:29:19;;;;;;;5.68;1.65;;;;;;;;;;3591631;40;20048;-67
2021/07/15 08:31:45;;;;;;;3.50;1.70;;;;;;;;;;3590130;40;20044;-67
2021/07/15 08:34:11;;;;;;;2.65;1.85;;;;;;;;;;3591157;39;20036;-67
2021/07/15 08:36:36;;;;;;;3.23;1.77;;;;;;;;;;3591164;40;20655;-66
2021/07/15 08:39:01;;;;;;;1.95;1.50;;;;;;;;;;3590419;39;20024;-67
2021/07/15 08:41:26;;;;;;;2.40;1.73;;;;;;;;;;3590758;40;20063;-67
2021/07/15 08:43:52;;;;;;;1.80;1.60;;;;;;;;;;3591456;40;20020;-66
2021/07/15 08:46:17;;;;;;;1.40;1.10;;;;;;;;;;3591060;40;20070;-67
2021/07/15 08:48:42;;;;;;;1.17;1.07;;;;;;;;;;3590906;40;20016;-67
2021/07/15 08:51:07;;;;;;;3.40;1.27;;;;;;;;;;3589658;40;20588;-66
2021/07/15 08:53:35;;;;;;;2.83;1.33;;;;;;;;;;3591013;39;20057;-67
2021/07/15 08:58:44;;;;;;;3.17;1.88;;;;;;;;;;3590063;40;20036;-67
2021/07/15 09:01:09;;;;;;;3.20;1.30;;;;;;;;;;3591253;40;20109;-67
2021/07/15 09:03:35;;;;;;;4.13;1.50;;;;;;;;;;3590248;40;20089;-67
2021/07/15 09:06:00;;;;;;;2.17;1.40;;;;;;;;;;3589829;40;20739;-66
2021/07/15 09:08:26;;;;;;;3.03;1.10;;;;;;;;;;3597241;39;20043;-67
2021/07/15 09:10:51;;;;;;;1.40;1.10;;;;;;;;;;3589059;40;20039;-67
2021/07/15 09:13:17;;;;;;;7.82;1.25;;;;;;;;;;3589125;40;20429;-67
2021/07/15 09:15:42;;;;;;;4.17;1.23;;;;;;;;;;3590727;40;20024;-67
2021/07/15 09:18:07;;;;;;;1.17;1.07;;;;;;;;;;3590316;40;20021;-67
2021/07/15 09:20:32;;;;;;;4.50;1.30;;;;;;;;;;3590214;40;20064;-67
2021/07/15 09:22:59;;;;;;;1.60;1.10;;;;;;;;;;3590577;40;20052;-67
2021/07/15 09:25:24;;;;;;;6.35;1.60;;;;;;;;;;3590342;39;20032;-67
2021/07/15 09:27:49;;;;;;;2.17;1.10;;;;;;;;;;3590294;40;20050;-66
2021/07/15 09:30:15;;;;;;;2.60;1.30;;;;;;;;;;3590298;40;20021;-67
2021/07/15 09:32:40;;;;;;;4.43;1.00;;;;;;;;;;3590092;39;20107;-67
2021/07/15 09:35:05;;;;;;;5.10;1.33;;;;;;;;;;3591544;40;20185;-67
2021/07/15 09:37:30;;;;;;;3.37;1.40;;;;;;;;;;3592292;40;20080;-67
2021/07/15 09:39:55;;;;;;;1.40;0.90;;;;;;;;;;3592866;40;20499;-66
2021/07/15 09:42:21;;;;;;;4.30;1.10;;;;;;;;;;3592199;40;20133;-67
2021/07/15 09:44:46;;;;;;;3.40;1.08;;;;;;;;;;3592775;39;20625;-67
2021/07/15 09:47:11;;;;;;;4.90;1.20;;;;;;;;;;3591505;40;20109;-67
2021/07/15 09:49:37;;;;;;;6.33;1.27;;;;;;;;;;3592052;40;20049;-68
2021/07/15 09:52:02;;;;;;;5.22;1.20;;;;;;;;;;3592715;39;20416;-67
2021/07/15 09:54:27;;;;;;;4.00;1.20;;;;;;;;;;3592617;40;20043;-67
2021/07/15 09:56:52;;;;;;;3.43;1.37;;;;;;;;;;3592100;40;20032;-67
2021/07/15 09:59:18;;;;;;;3.20;1.27;;;;;;;;;;3592609;40;20062;-67
2021/07/15 10:01:43;;;;;;;1.13;1.00;;;;;;;;;;3592468;40;20032;-67
2021/07/15 10:04:08;;;;;;;1.80;1.10;;;;;;;;;;3590983;40;20028;-66
2021/07/15 10:06:33;;;;;;;1.33;0.90;;;;;;;;;;3592265;40;20043;-65
2021/07/15 10:08:58;;;;;;;1.17;1.07;;;;;;;;;;3592624;40;20032;-66
2021/07/15 10:11:24;;;;;;;4.57;1.10;;;;;;;;;;3591393;40;20456;-66
2021/07/15 10:13:49;;;;;;;1.85;1.20;;;;;;;;;;3592229;40;20036;-65
2021/07/15 10:16:14;;;;;;;5.33;2.30;;;;;;;;;;3592062;40;20031;-66
2021/07/15 10:18:39;;;;;;;1.90;1.53;;;;;;;;;;3590418;40;20039;-66
2021/07/15 10:21:05;;;;;;;4.20;2.47;;;;;;;;;;3589629;40;20048;-66
2021/07/15 10:23:30;;;;;;;1.85;1.55;;;;;;;;;;3591929;40;20325;-68
2021/07/15 10:25:55;;;;;;;2.30;1.40;;;;;;;;;;3591425;39;20570;-67
2021/07/15 10:28:21;;;;;;;2.27;1.07;;;;;;;;;;3591296;40;20032;-68
2021/07/15 10:30:46;;;;;;;4.73;1.17;;;;;;;;;;3590918;40;20428;-68
2021/07/15 10:33:11;;;;;;;1.67;1.00;;;;;;;;;;3591043;40;20044;-67
2021/07/15 10:35:36;;;;;;;1.90;1.70;;;;;;;;;;3591133;40;20048;-68
2021/07/15 10:38:03;;;;;;;3.27;1.60;;;;;;;;;;3591451;40;20039;-68
2021/07/15 10:40:28;;;;;;;1.30;1.20;;;;;;;;;;3590762;39;20060;-69
2021/07/15 10:42:53;;;;;;;2.73;1.20;;;;;;;;;;3591200;40;20051;-67
2021/07/15 10:45:19;;;;;;;4.43;1.30;;;;;;;;;;3590676;39;20210;-67
2021/07/15 10:47:44;;;;;;;2.83;1.20;;;;;;;;;;3590555;40;20062;-68
2021/07/15 10:50:09;;;;;;;2.40;1.17;;;;;;;;;;3589305;40;20118;-67
2021/07/15 10:52:34;;;;;;;3.73;2.20;;;;;;;;;;3591385;40;20635;-68
2021/07/15 10:55:00;;;;;;;6.60;1.30;;;;;;;;;;3590575;40;20324;-67
2021/07/15 10:57:25;;;;;;;1.63;1.35;;;;;;;;;;3590734;39;20265;-68
2021/07/15 10:59:50;;;;;;;1.40;1.30;;;;;;;;;;3590827;40;20612;-67
2021/07/15 11:02:16;;;;;;;3.80;1.33;;;;;;;;;;3591301;40;20016;-68
2021/07/15 11:04:41;;;;;;;2.05;1.05;;;;;;;;;;3590457;39;20270;-67
2021/07/15 11:07:07;;;;;;;1.97;1.40;;;;;;;;;;3592131;40;20028;-67
2021/07/15 11:09:33;;;;;;;2.37;1.10;;;;;;;;;;3592044;40;20043;-67
2021/07/15 11:11:58;;;;;;;5.35;1.42;;;;;;;;;;3589446;40;20016;-67
2021/07/15 11:14:23;;;;;;;3.50;1.30;;;;;;;;;;3590353;40;20055;-66
2021/07/15 11:16:48;;;;;;;4.87;1.50;;;;;;;;;;3591986;40;20473;-67
2021/07/15 11:19:18;;;;;;;4.17;1.50;;;;;;;;;;3592183;40;20028;-67
2021/07/15 11:21:43;;;;;;;1.70;1.30;;;;;;;;;;3590819;40;20044;-67
2021/07/15 11:24:08;;;;;;;4.43;1.13;;;;;;;;;;3591982;40;20036;-67
2021/07/15 11:26:33;;;;;;;3.67;1.50;;;;;;;;;;3590744;40;20528;-67
2021/07/15 11:28:59;;;;;;;7.82;1.40;;;;;;;;;;3590643;40;20020;-67
2021/07/15 11:31:24;;;;;;;4.57;1.27;;;;;;;;;;3591187;40;20109;-68
2021/07/15 11:33:49;;;;;;;3.20;1.30;;;;;;;;;;3591435;40;20254;-67
2021/07/15 11:36:14;;;;;;;2.17;1.30;;;;;;;;;;3592056;40;20784;-67
2021/07/15 11:38:40;;;;;;;2.13;1.00;;;;;;;;;;3590135;40;20043;-67
2021/07/15 11:41:05;;;;;;;2.40;1.23;;;;;;;;;;3590681;40;20032;-67
2021/07/15 11:43:32;;;;;;;4.20;1.23;;;;;;;;;;3590095;40;20025;-68
2021/07/15 11:45:57;;;;;;;1.10;1.00;;;;;;;;;;3591603;39;20032;-67
2021/07/15 11:48:22;;;;;;;1.70;1.17;;;;;;;;;;3591589;40;20416;-66
2021/07/15 11:50:49;;;;;;;1.23;1.00;;;;;;;;;;3591147;40;20024;-67
2021/07/15 11:53:14;;;;;;;2.53;1.05;;;;;;;;;;3590512;40;20487;-67
2021/07/15 11:55:39;;;;;;;5.07;1.10;;;;;;;;;;3591650;39;20109;-67
2021/07/15 11:58:04;;;;;;;1.80;1.10;;;;;;;;;;3591913;39;20710;-67
2021/07/15 12:00:30;;;;;;;1.27;1.00;;;;;;;;;;3592020;40;20111;-67
2021/07/15 12:02:55;;;;;;;3.53;1.00;;;;;;;;;;3589974;40;20649;-67
2021/07/15 12:05:21;;;;;;;1.70;1.40;;;;;;;;;;3591898;40;20117;-67
2021/07/15 12:07:46;;;;;;;1.30;1.20;;;;;;;;;;3591865;39;20024;-67
2021/07/15 12:10:11;;;;;;;2.93;1.50;;;;;;;;;;3590385;40;20048;-67
2021/07/15 12:12:36;;;;;;;3.47;2.30;;;;;;;;;;3581540;40;20043;-67
2021/07/15 12:15:02;;;;;;;2.47;1.20;;;;;;;;;;3590467;40;20040;-68
2021/07/15 12:17:27;;;;;;;1.40;1.00;;;;;;;;;;3591433;39;20024;-68
2021/07/15 12:19:52;;;;;;;2.67;1.00;;;;;;;;;;3590537;40;20042;-68
2021/07/15 12:22:18;;;;;;;3.35;1.23;;;;;;;;;;3592088;39;20032;-67
2021/07/15 12:24:43;;;;;;;2.57;1.10;;;;;;;;;;3591912;40;20090;-67
2021/07/15 12:27:08;;;;;;;2.87;1.13;;;;;;;;;;3591702;40;20036;-67
2021/07/15 12:29:37;;;;;;;2.67;0.93;;;;;;;;;;3590452;40;20035;-68
2021/07/15 12:32:02;;;;;;;3.63;1.20;;;;;;;;;;3591791;39;20487;-68
2021/07/15 12:34:27;;;;;;;1.97;1.33;;;;;;;;;;3591085;40;20020;-67
2021/07/15 12:36:53;;;;;;;4.05;1.05;;;;;;;;;;3591620;40;20042;-67
2021/07/15 12:39:19;;;;;;;2.47;1.10;;;;;;;;;;3591677;40;20055;-68
2021/07/15 12:41:45;;;;;;;3.03;1.38;;;;;;;;;;3591671;39;20036;-67
2021/07/15 12:44:12;;;;;;;1.30;1.17;;;;;;;;;;3591797;39;20044;-67
2021/07/15 12:46:37;;;;;;;3.80;1.20;;;;;;;;;;3591024;39;20039;-68
2021/07/15 12:49:02;;;;;;;5.20;1.50;;;;;;;;;;3592102;39;20016;-68
2021/07/15 12:51:28;;;;;;;2.57;1.27;;;;;;;;;;3591328;40;20027;-67
2021/07/15 12:53:53;;;;;;;3.03;1.17;;;;;;;;;;3590240;40;20075;-67
2021/07/15 12:56:19;;;;;;;6.40;1.30;;;;;;;;;;3591033;40;20020;-67
2021/07/15 12:58:44;;;;;;;2.13;1.13;;;;;;;;;;3589250;40;20393;-67
2021/07/15 13:01:09;;;;;;;4.03;1.33;;;;;;;;;;3590287;39;20035;-67
2021/07/15 13:03:35;;;;;;;11.23;1.30;;;;;;;;;;3591041;40;20032;-67
2021/07/15 13:06:00;;;;;;;4.13;1.10;;;;;;;;;;3589110;40;20037;-68
2021/07/15 13:08:44;;;;;;;1.63;1.15;;;;;;;;;;3591414;39;20106;-68
2021/07/15 13:16:37;;;;;;;2.90;1.10;;;;;;;;;;3592107;40;20084;-68
2021/07/15 13:19:02;;;;;;;7.13;1.20;;;;;;;;;;3592229;39;20032;-68
2021/07/15 13:21:28;;;;;;;2.20;1.23;;;;;;;;;;3592177;40;20040;-68
2021/07/15 13:23:53;;;;;;;1.90;1.60;;;;;;;;;;3591170;40;20422;-68
2021/07/15 13:26:18;;;;;;;4.00;1.23;;;;;;;;;;3591370;40;20028;-68
2021/07/15 13:28:43;;;;;;;4.40;1.20;;;;;;;;;;3592552;40;20044;-68
2021/07/15 13:31:09;;;;;;;3.90;1.52;;;;;;;;;;3591289;40;20032;-68
2021/07/15 13:33:34;;;;;;;2.80;1.30;;;;;;;;;;3592623;40;20290;-68
2021/07/15 13:35:59;;;;;;;2.60;1.07;;;;;;;;;;3592495;40;20425;-68
2021/07/15 13:38:25;;;;;;;1.50;1.20;;;;;;;;;;3592008;40;20455;-68
2021/07/15 13:40:50;;;;;;;6.32;1.50;;;;;;;;;;3592104;39;20751;-68
2021/07/15 13:43:15;;;;;;;3.27;1.00;;;;;;;;;;3592081;40;20589;-68
2021/07/15 13:45:40;;;;;;;2.13;1.00;;;;;;;;;;3591151;40;20067;-68
2021/07/15 13:48:05;;;;;;;2.90;1.23;;;;;;;;;;3592533;39;20874;-67
2021/07/15 13:50:31;;;;;;;1.30;1.20;;;;;;;;;;3592015;40;20092;-68
2021/07/15 13:52:56;;;;;;;1.67;1.00;;;;;;;;;;3590567;40;20097;-67
2021/07/15 13:55:21;;;;;;;3.87;1.00;;;;;;;;;;3592831;40;20036;-67
2021/07/15 13:57:47;;;;;;;1.97;1.27;;;;;;;;;;3592511;40;20035;-67
2021/07/15 14:00:12;;;;;;;2.53;1.10;;;;;;;;;;3592105;40;20023;-68
2021/07/15 14:02:40;;;;;;;11.07;1.40;;;;;;;;;;3591882;40;20301;-68
2021/07/15 14:05:05;;;;;;;1.50;1.20;;;;;;;;;;3592321;40;20028;-67
2021/07/15 14:07:30;;;;;;;6.23;2.53;;;;;;;;;;3591611;40;20044;-67
2021/07/15 14:09:56;;;;;;;1.60;1.30;;;;;;;;;;3591434;40;20500;-68
2021/07/15 14:12:21;;;;;;;2.77;1.70;;;;;;;;;;3592215;40;20138;-68
2021/07/15 14:14:46;;;;;;;9.53;5.97;;;;;;;;;;3591846;40;20031;-67
2021/07/15 14:17:11;;;;;;;5.18;1.98;;;;;;;;;;3592599;39;20112;-68
2021/07/15 14:19:36;;;;;;;4.13;1.30;;;;;;;;;;3591073;39;20263;-67
2021/07/15 14:22:03;;;;;;;3.80;1.33;;;;;;;;;;3590813;40;20036;-69
2021/07/15 14:24:29;;;;;;;6.82;1.65;;;;;;;;;;3591953;39;20375;-68
2021/07/15 14:26:54;;;;;;;2.70;1.10;;;;;;;;;;3591810;39;20040;-68
2021/07/15 14:29:19;;;;;;;1.97;1.30;;;;;;;;;;3591045;40;20020;-69
2021/07/15 14:31:44;;;;;;;3.07;1.47;;;;;;;;;;3591673;40;20084;-67
2021/07/15 14:34:10;;;;;;;6.03;1.27;;;;;;;;;;3592177;40;20020;-66
2021/07/15 14:36:35;;;;;;;2.97;1.10;;;;;;;;;;3591791;40;20084;-67